Time;durP1;ratioP1;P1;durP2;ratioP2;P2;SDS_P1;SDS_P2;PMS_P1;PMS_P2;Temp;Humidity;BMP_temperature;BMP_pressure;BME280_temperature;BME280_humidity;BME280_pressure;Samples;Min_cycle;Max_cycle;Signal;HPM_P1;HPM_P2
2022/01/03 00:02:07;;;;;;;3.33;1.75;;;;;;;9.48;88.33;99872.17;1624679;86;21414;-73
2022/01/03 00:04:35;;;;;;;4.97;2.07;;;;;;;9.48;88.28;99875.61;1631855;87;20982;-73
2022/01/03 00:07:02;;;;;;;3.47;2.10;;;;;;;9.47;88.21;99871.33;1628526;86;20962;-73
2022/01/03 00:09:28;;;;;;;;;;;;;;;9.46;88.20;99874.80;1633744;87;20950;-73
2022/01/03 00:11:54;;;;;;;4.15;1.70;;;;;;;9.43;88.06;99872.28;1632679;86;20190;-73
2022/01/03 00:14:22;;;;;;;3.22;1.90;;;;;;;9.42;88.10;99877.48;1639821;85;20966;-73
2022/01/03 00:16:48;;;;;;;4.60;2.60;;;;;;;9.39;88.05;99865.50;1620637;87;20986;-73
2022/01/03 00:19:13;;;;;;;5.87;1.83;;;;;;;9.37;88.03;99880.61;1632334;87;20934;-73
2022/01/03 00:21:45;;;;;;;3.77;1.03;;;;;;;9.32;88.05;99880.73;1644237;84;20946;-73
2022/01/03 00:24:13;;;;;;;3.25;1.98;;;;;;;9.31;87.96;99870.45;1615915;86;20902;-73
2022/01/03 00:26:40;;;;;;;29.95;14.60;;;;;;;9.26;88.05;99881.73;1644069;86;20958;-73
2022/01/03 00:29:18;;;;;;;;;;;;;;;9.21;87.97;99882.27;1638415;85;20981;-73
2022/01/03 00:31:44;;;;;;;2.83;1.70;;;;;;;9.16;87.81;99887.97;1627710;86;20177;-73
2022/01/03 00:34:13;;;;;;;4.05;1.90;;;;;;;9.11;87.97;99882.06;1628868;86;21473;-73
2022/01/03 00:36:40;;;;;;;5.37;1.60;;;;;;;9.06;87.95;99881.31;1631250;87;20997;-73
2022/01/03 00:39:08;;;;;;;;;;;;;;;9.03;87.99;99870.21;1634405;87;20970;-73
2022/01/03 00:41:40;;;;;;;5.15;1.60;;;;;;;8.99;87.84;99873.30;1624876;87;20594;-73
2022/01/03 00:44:07;;;;;;;3.67;2.15;;;;;;;8.95;87.92;99867.35;1640133;86;20990;-73
2022/01/03 00:46:34;;;;;;;2.92;1.20;;;;;;;8.92;87.90;99871.28;1620404;87;20950;-72
2022/01/03 00:49:02;;;;;;;3.47;1.90;;;;;;;8.89;87.88;99873.93;1632039;87;25531;-73
2022/01/03 00:51:28;;;;;;;5.65;1.60;;;;;;;8.87;87.86;99870.97;1643807;86;21034;-73
2022/01/03 00:53:54;;;;;;;6.40;1.40;;;;;;;8.83;87.93;99871.51;1628167;86;22135;-73
2022/01/03 00:56:30;;;;;;;4.53;1.70;;;;;;;8.81;87.91;99875.84;1622331;86;20970;-73
2022/01/03 00:59:15;;;;;;;2.92;1.40;;;;;;;8.79;87.87;99877.61;1624095;86;20918;-73
2022/01/03 01:01:51;;;;;;;44.60;28.25;;;;;;;8.77;87.85;99879.37;1631545;87;21069;-73
2022/01/03 01:04:20;;;;;;;5.90;1.62;;;;;;;8.75;87.82;99873.39;1614396;87;20954;-72
2022/01/03 01:06:54;;;;;;;2.62;1.22;;;;;;;8.73;87.79;99883.33;1630534;87;20938;-72
2022/01/03 01:09:23;;;;;;;3.50;1.80;;;;;;;8.72;87.77;99876.47;1638079;86;20962;-73
2022/01/03 01:11:54;;;;;;;3.20;1.37;;;;;;;8.68;87.77;99879.99;1622560;87;21009;-73
2022/01/03 01:14:21;;;;;;;2.77;1.20;;;;;;;8.66;87.72;99876.59;1623822;86;21561;-73
2022/01/03 01:16:48;;;;;;;2.72;1.37;;;;;;;8.60;87.72;99879.70;1631889;87;20950;-73
2022/01/03 01:19:14;;;;;;;4.40;2.25;;;;;;;8.59;87.72;99867.70;1624759;87;20950;-73
2022/01/03 01:21:41;;;;;;;2.27;1.25;;;;;;;8.57;87.73;99869.89;1621878;86;20993;-73
2022/01/03 01:24:07;;;;;;;5.33;1.62;;;;;;;8.55;87.72;99857.04;1631328;87;21442;-73
2022/01/03 01:29:18;;;;;;;4.25;1.55;;;;;;;8.51;87.66;99855.41;1631327;86;20954;-73
2022/01/03 01:31:49;;;;;;;2.87;1.12;;;;;;;8.48;87.63;99854.17;1631808;87;20921;-73
2022/01/03 01:34:25;;;;;;;3.67;1.20;;;;;;;8.45;87.65;99853.38;1619585;87;20969;-72
2022/01/03 01:36:55;;;;;;;2.08;0.90;;;;;;;8.42;87.64;99851.72;1632510;86;20978;-72
2022/01/03 01:39:25;;;;;;;1.92;1.20;;;;;;;8.40;87.64;99847.47;1629999;87;20974;-73
2022/01/03 01:42:02;;;;;;;3.40;1.50;;;;;;;8.37;87.61;99843.23;1634862;86;20957;-73
2022/01/03 01:44:33;;;;;;;2.80;1.52;;;;;;;8.34;87.66;99844.57;1631949;87;20953;-73
2022/01/03 01:47:04;;;;;;;4.90;2.50;;;;;;;8.32;87.65;99839.86;1620780;87;20993;-73
2022/01/03 01:49:38;;;;;;;4.45;2.12;;;;;;;8.30;87.68;99849.37;1632707;86;20957;-73
2022/01/03 01:52:05;;;;;;;3.85;1.90;;;;;;;8.29;87.71;99842.52;1616177;87;20942;-73
2022/01/03 01:54:36;;;;;;;2.90;1.70;;;;;;;8.27;87.72;99842.55;1610526;87;21065;-73
2022/01/03 01:57:20;;;;;;;4.50;1.90;;;;;;;8.26;87.73;99843.87;1626828;86;20958;-73
2022/01/03 02:00:06;;;;;;;5.90;1.85;;;;;;;8.24;87.69;99839.19;1621429;87;20989;-73
2022/01/03 02:02:37;;;;;;;3.60;1.75;;;;;;;8.23;87.73;99837.05;1643085;86;20987;-73
2022/01/03 02:05:19;;;;;;;5.83;2.20;;;;;;;8.20;87.72;99826.80;1628949;85;20902;-73
2022/01/03 02:08:14;;;;;;;4.47;2.20;;;;;;;8.18;87.71;99827.27;1615123;86;20930;-73
2022/01/03 02:11:14;;;;;;;6.90;2.50;;;;;;;8.17;87.72;99821.71;1638224;86;20981;-73
2022/01/03 02:13:42;;;;;;;5.70;2.17;;;;;;;8.16;87.72;99820.45;1596448;87;21033;-73
2022/01/03 02:16:08;;;;;;;3.85;2.22;;;;;;;8.14;87.76;99821.77;1610325;87;20938;-73
2022/01/03 02:18:34;;;;;;;6.70;2.30;;;;;;;8.14;87.77;99818.34;1630926;87;20958;-73
2022/01/03 02:21:03;;;;;;;4.23;2.27;;;;;;;8.14;87.80;99815.77;1632403;86;20938;-73
2022/01/03 02:23:29;;;;;;;5.10;2.60;;;;;;;8.15;87.79;99812.31;1619661;87;21244;-73
2022/01/03 02:25:55;;;;;;;5.20;2.80;;;;;;;8.15;87.78;99813.16;1629150;86;20934;-73
2022/01/03 02:28:22;;;;;;;5.87;2.43;;;;;;;8.17;87.83;99810.56;1622597;86;20946;-73
2022/01/03 02:30:50;;;;;;;3.98;2.17;;;;;;;8.19;87.83;99799.80;1646525;86;20966;-73
2022/01/03 02:33:17;;;;;;;3.92;2.70;;;;;;;8.19;87.80;99793.36;1645436;86;20974;-73
2022/01/03 02:35:45;;;;;;;3.98;2.62;;;;;;;8.20;87.79;99795.91;1616427;87;20910;-73
2022/01/03 02:38:13;;;;;;;5.05;2.60;;;;;;;8.21;87.79;99796.75;1620867;87;20974;-73
2022/01/03 02:40:39;;;;;;;4.42;2.45;;;;;;;8.22;87.78;99794.58;1631845;86;21031;-73
2022/01/03 02:43:06;;;;;;;4.03;2.57;;;;;;;8.21;87.78;99784.72;1615592;87;20978;-73
2022/01/03 02:45:32;;;;;;;3.35;2.70;;;;;;;8.21;87.79;99783.44;1627974;87;21682;-73
2022/01/03 02:48:02;;;;;;;4.63;2.30;;;;;;;8.19;87.73;99782.61;1625874;86;20934;-73
2022/01/03 02:50:31;;;;;;;4.50;2.30;;;;;;;8.20;87.75;99780.89;1625177;86;21697;-73
2022/01/03 02:52:57;;;;;;;5.50;3.25;;;;;;;8.19;87.77;99780.05;1641163;86;20918;-73
2022/01/03 02:55:26;;;;;;;5.37;2.72;;;;;;;8.18;87.74;99771.91;1631232;86;20974;-73
2022/01/03 02:57:55;;;;;;;3.52;2.60;;;;;;;8.16;87.73;99772.37;1614670;87;21530;-73
2022/01/03 03:00:26;;;;;;;5.22;2.58;;;;;;;8.16;87.75;99768.95;1633787;86;20950;-73
2022/01/03 03:02:52;;;;;;;4.70;2.67;;;;;;;8.16;87.74;99762.52;1639392;85;20949;-73
2022/01/03 03:05:19;;;;;;;3.00;2.40;;;;;;;8.14;87.74;99761.25;1641823;86;20930;-73
2022/01/03 03:07:46;;;;;;;5.85;3.42;;;;;;;8.14;87.75;99756.55;1626591;87;20934;-73
2022/01/03 03:10:18;;;;;;;6.60;2.95;;;;;;;8.13;87.74;99753.56;1630933;87;20942;-73
2022/01/03 03:12:46;;;;;;;5.65;2.87;;;;;;;8.12;87.74;99755.73;1630971;86;21398;-73
2022/01/03 03:15:15;;;;;;;3.15;2.55;;;;;;;8.11;87.72;99750.17;1626589;87;21022;-73
2022/01/03 03:17:43;;;;;;;10.88;2.90;;;;;;;8.10;87.71;99749.32;1630942;87;21692;-73
2022/01/03 03:20:26;;;;;;;5.65;2.62;;;;;;;8.09;87.71;99743.77;1634710;86;20981;-73
2022/01/03 03:22:54;;;;;;;5.17;2.70;;;;;;;8.07;87.69;99741.66;1622508;87;20935;-73
2022/01/03 03:25:25;;;;;;;3.70;2.77;;;;;;;8.05;87.69;99745.98;1631343;86;20906;-73
2022/01/03 03:28:00;;;;;;;7.78;2.85;;;;;;;8.04;87.73;99749.44;1631283;86;20926;-73
2022/01/03 03:30:31;;;;;;;5.30;2.92;;;;;;;8.03;87.73;99740.45;1630930;87;20934;-73
2022/01/03 03:33:07;;;;;;;7.62;2.55;;;;;;;8.03;87.71;99740.45;1624463;87;20994;-73
2022/01/03 03:35:33;;;;;;;8.55;3.08;;;;;;;8.03;87.75;99736.59;1619107;86;20931;-73
2022/01/03 03:37:59;;;;;;;9.28;3.55;;;;;;;8.05;87.82;99733.11;1626543;87;20954;-73
2022/01/03 03:40:25;;;;;;;4.70;3.07;;;;;;;8.06;87.82;99722.38;1627908;85;21656;-73
2022/01/03 03:42:52;;;;;;;5.00;2.70;;;;;;;8.07;87.78;99724.07;1622603;86;20922;-73
2022/01/03 03:45:19;;;;;;;7.80;2.87;;;;;;;8.09;87.80;99724.89;1619002;87;20914;-73
2022/01/03 03:47:45;;;;;;;8.30;3.45;;;;;;;8.10;87.84;99723.57;1624674;87;20978;-73
2022/01/03 03:50:11;;;;;;;5.53;3.42;;;;;;;8.11;87.79;99717.55;1631119;87;21423;-73
2022/01/03 03:52:38;;;;;;;6.70;3.30;;;;;;;8.10;87.73;99719.71;1625572;86;20922;-73
2022/01/03 03:55:06;;;;;;;6.78;3.12;;;;;;;8.11;87.78;99725.27;1606182;87;20988;-73
2022/01/03 03:57:33;;;;;;;4.12;3.05;;;;;;;8.12;87.77;99717.95;1630946;86;20982;-73
2022/01/03 03:59:59;;;;;;;6.95;3.50;;;;;;;8.13;87.74;99706.77;1632430;86;21536;-73
2022/01/03 04:02:25;;;;;;;4.83;3.25;;;;;;;8.13;87.74;99706.77;1622358;86;20961;-73
2022/01/03 04:04:51;;;;;;;5.72;3.30;;;;;;;8.13;87.71;99709.34;1628553;86;20957;-73
2022/01/03 04:07:17;;;;;;;7.00;3.60;;;;;;;8.13;87.71;99704.20;1627588;86;21545;-73
2022/01/03 04:09:43;;;;;;;6.67;3.80;;;;;;;8.14;87.76;99708.47;1618925;88;21527;-73
2022/01/03 04:12:10;;;;;;;7.75;3.92;;;;;;;8.15;87.73;99707.59;1624847;86;21541;-73
2022/01/03 04:14:36;;;;;;;5.12;3.10;;;;;;;8.16;87.74;99700.71;1627571;87;21474;-73
2022/01/03 04:17:02;;;;;;;6.00;2.83;;;;;;;8.16;87.70;99707.16;1628527;86;20986;-73
2022/01/03 04:19:28;;;;;;;5.20;2.67;;;;;;;8.16;87.70;99707.16;1617884;88;21466;-73
2022/01/03 04:21:54;;;;;;;5.70;3.50;;;;;;;8.15;87.72;99705.45;1621811;88;21440;-73
2022/01/03 04:24:20;;;;;;;4.50;3.27;;;;;;;8.16;87.73;99702.84;1623663;86;21446;-73
2022/01/03 04:26:49;;;;;;;5.63;3.23;;;;;;;8.17;87.74;99705.83;1632287;85;21953;-73
2022/01/03 04:29:14;;;;;;;6.12;2.80;;;;;;;8.18;87.73;99702.81;1626338;88;21771;-73
2022/01/03 04:31:40;;;;;;;4.87;3.17;;;;;;;8.19;87.74;99699.36;1620775;86;20899;-73
2022/01/03 04:34:08;;;;;;;6.13;3.50;;;;;;;8.18;87.73;99698.52;1629934;85;21704;-73
2022/01/03 04:36:34;;;;;;;4.87;3.50;;;;;;;8.18;87.68;99695.94;1627311;86;21482;-73
2022/01/03 04:39:00;;;;;;;10.58;3.83;;;;;;;8.18;87.71;99701.09;1627242;87;21560;-73
2022/01/03 04:41:26;;;;;;;4.22;3.33;;;;;;;8.20;87.75;99695.91;1621882;86;21545;-73
2022/01/03 04:43:52;;;;;;;6.40;3.27;;;;;;;8.20;87.75;99696.76;1628336;86;20903;-73
2022/01/03 04:46:18;;;;;;;7.27;3.33;;;;;;;8.20;87.76;99695.47;1620771;87;21766;-72
2022/01/03 04:48:44;;;;;;;9.25;3.52;;;;;;;8.21;87.78;99686.86;1622306;87;21510;-73
2022/01/03 04:51:11;;;;;;;7.90;3.73;;;;;;;8.13;87.80;99668.15;1604565;88;21030;-73
2022/01/03 04:53:40;;;;;;;;;;;;;;;8.13;87.80;99668.15;1628302;86;23002;-73
2022/01/03 04:56:08;;;;;;;6.50;2.65;;;;;;;8.25;87.85;99685.92;1633494;85;20106;-73
2022/01/03 04:58:35;;;;;;;3.95;2.50;;;;;;;8.26;87.81;99677.75;1604939;87;21002;-73
2022/01/03 05:01:01;;;;;;;4.60;3.20;;;;;;;8.27;87.82;99682.02;1618047;87;21349;-73
2022/01/03 05:03:27;;;;;;;5.50;2.87;;;;;;;8.26;87.83;99677.75;1599623;87;20939;-73
2022/01/03 05:05:53;;;;;;;5.27;3.10;;;;;;;8.24;87.85;99680.36;1623347;87;21513;-72
2022/01/03 05:08:19;;;;;;;5.50;3.40;;;;;;;8.25;87.88;99677.34;1620148;87;21783;-73
2022/01/03 05:10:45;;;;;;;4.47;2.97;;;;;;;8.25;87.91;99672.19;1610230;87;20938;-73
2022/01/03 05:13:11;;;;;;;5.13;3.10;;;;;;;8.25;87.93;99674.77;1614823;87;20922;-73
2022/01/03 05:15:36;;;;;;;5.60;3.33;;;;;;;8.25;87.95;99672.19;1614427;87;21742;-73
2022/01/03 05:18:03;;;;;;;5.70;2.80;;;;;;;8.27;87.96;99674.30;1592940;87;21648;-73
2022/01/03 05:20:30;;;;;;;5.12;3.20;;;;;;;8.25;87.96;99670.91;1631447;87;21430;-73
2022/01/03 05:22:56;;;;;;;5.30;2.90;;;;;;;8.24;88.00;99667.48;1598484;87;21887;-73
2022/01/03 05:25:22;;;;;;;3.67;3.27;;;;;;;8.25;88.00;99666.60;1612067;87;21923;-72
2022/01/03 05:27:48;;;;;;;5.70;3.40;;;;;;;8.24;87.97;99659.76;1599260;87;20922;-72
2022/01/03 05:30:15;;;;;;;3.95;2.65;;;;;;;8.24;88.05;99655.89;1608213;87;21438;-72
2022/01/03 05:32:41;;;;;;;4.08;3.00;;;;;;;8.25;88.04;99654.17;1605235;87;21329;-73
2022/01/03 05:35:08;;;;;;;3.35;3.05;;;;;;;8.25;88.03;99642.58;1612861;87;21418;-72
2022/01/03 05:37:34;;;;;;;5.15;2.72;;;;;;;8.24;88.07;99642.17;1610023;87;20985;-73
2022/01/03 05:40:00;;;;;;;3.13;2.47;;;;;;;8.24;88.08;99640.88;1602153;87;21688;-73
2022/01/03 05:42:26;;;;;;;8.50;2.67;;;;;;;8.24;88.04;99639.16;1613373;87;20990;-73
2022/01/03 05:44:52;;;;;;;6.00;2.60;;;;;;;8.23;88.07;99632.75;1592056;87;20963;-73
2022/01/03 05:47:18;;;;;;;4.50;2.67;;;;;;;8.23;88.12;99631.02;1592604;86;21212;-73
2022/01/03 05:49:44;;;;;;;3.80;2.50;;;;;;;8.21;88.10;99622.48;1618312;87;20994;-73
2022/01/03 05:52:10;;;;;;;2.97;2.40;;;;;;;8.22;88.12;99622.89;1625172;87;20911;-73
2022/01/03 05:54:36;;;;;;;3.40;2.80;;;;;;;8.23;88.15;99626.31;1599306;87;20907;-73
2022/01/03 05:57:02;;;;;;;3.83;2.60;;;;;;;8.23;88.14;99622.45;1623735;87;20847;-73
2022/01/03 05:59:28;;;;;;;6.67;2.37;;;;;;;8.24;88.17;99618.99;1628253;86;20934;-73
2022/01/03 06:01:55;;;;;;;3.62;2.55;;;;;;;8.23;88.15;99622.01;1630782;86;20967;-73
2022/01/03 06:04:23;;;;;;;2.52;2.33;;;;;;;8.24;88.21;99613.84;1628315;86;20918;-73
2022/01/03 06:06:56;;;;;;;3.20;2.77;;;;;;;8.25;88.19;99613.81;1684346;83;20945;-73
2022/01/03 06:09:23;;;;;;;4.85;2.77;;;;;;;8.26;88.23;99611.64;1679252;84;20926;-73
2022/01/03 06:11:52;;;;;;;6.72;3.52;;;;;;;8.26;88.23;99611.64;1674840;84;21357;-76
2022/01/03 06:14:20;;;;;;;4.30;3.62;;;;;;;8.27;88.21;99606.89;1672609;83;20926;-76
2022/01/03 06:16:48;;;;;;;4.83;3.72;;;;;;;8.26;88.21;99610.80;1676264;84;20893;-73
2022/01/03 06:19:15;;;;;;;5.50;4.03;;;;;;;8.26;88.20;99605.64;1688259;83;20937;-73
2022/01/03 06:21:42;;;;;;;8.55;3.90;;;;;;;8.26;88.22;99603.91;1676122;83;20946;-74
2022/01/03 06:24:11;;;;;;;4.65;4.20;;;;;;;8.25;88.19;99612.52;1674580;83;20957;-76
2022/01/03 06:26:41;;;;;;;4.30;3.08;;;;;;;8.25;88.22;99607.38;1686449;83;20925;-73
2022/01/03 06:29:08;;;;;;;4.35;3.60;;;;;;;8.24;88.21;99603.10;1683536;85;20960;-74
2022/01/03 06:31:35;;;;;;;5.33;3.40;;;;;;;8.21;88.18;99599.30;1686245;85;20941;-75
2022/01/03 06:34:03;;;;;;;3.40;3.10;;;;;;;8.21;88.22;99596.73;1680732;84;20895;-74
2022/01/03 06:36:29;;;;;;;4.30;3.00;;;;;;;8.20;88.21;99598.05;1687817;84;20938;-74
2022/01/03 06:38:56;;;;;;;4.45;3.22;;;;;;;8.19;88.26;99598.94;1667306;85;20874;-73
2022/01/03 06:41:26;;;;;;;5.47;3.00;;;;;;;8.19;88.26;99592.50;1687947;84;20909;-73
2022/01/03 06:43:53;;;;;;;4.25;2.87;;;;;;;8.19;88.28;99595.08;1687740;84;21368;-73
2022/01/03 06:46:19;;;;;;;;;;;;;;;8.19;88.30;99591.21;1688821;85;20894;-73
2022/01/03 06:48:46;;;;;;;3.75;2.75;;;;;;;8.19;88.37;99589.48;1687957;83;20127;-73
2022/01/03 06:51:16;;;;;;;5.40;3.15;;;;;;;8.18;88.31;99585.21;1687507;85;20918;-73
2022/01/03 06:53:43;;;;;;;3.00;2.60;;;;;;;8.16;88.31;99597.27;1685398;84;20907;-73
2022/01/03 06:56:10;;;;;;;4.12;2.98;;;;;;;8.16;88.38;99598.56;1687086;83;20890;-74
2022/01/03 06:58:38;;;;;;;5.87;3.35;;;;;;;8.15;88.35;99599.45;1685866;84;21127;-74
2022/01/03 07:01:05;;;;;;;3.40;3.00;;;;;;;8.15;88.33;99600.73;1685542;83;21057;-73
2022/01/03 07:03:32;;;;;;;4.12;2.90;;;;;;;8.14;88.35;99600.33;1686720;84;20878;-73
2022/01/03 07:05:58;;;;;;;4.03;2.90;;;;;;;8.13;88.38;99600.36;1680496;84;21450;-73
2022/01/03 07:08:24;;;;;;;3.35;2.58;;;;;;;8.13;88.40;99605.06;1679381;84;20962;-74
2022/01/03 07:10:50;;;;;;;2.73;2.47;;;;;;;8.13;88.41;99599.07;1679933;84;20913;-74
2022/01/03 07:13:17;;;;;;;2.15;1.90;;;;;;;8.15;88.48;99602.46;1672712;84;20955;-74
2022/01/03 07:21:06;;;;;;;2.62;1.90;;;;;;;8.20;88.45;99596.77;1884421;76;21938;-74
2022/01/03 07:23:34;;;;;;;2.37;2.17;;;;;;;8.17;88.47;99596.84;1853381;75;21472;-74
2022/01/03 07:26:00;;;;;;;4.12;2.70;;;;;;;8.18;88.43;99601.11;1845637;77;20956;-73
2022/01/03 07:28:27;;;;;;;4.67;3.20;;;;;;;8.17;88.47;99599.41;1847559;77;20917;-73
2022/01/03 07:30:53;;;;;;;6.53;4.10;;;;;;;8.17;88.46;99592.53;1846881;75;21104;-73
2022/01/03 07:33:19;;;;;;;91.90;9.97;;;;;;;8.19;88.51;99589.92;1843150;75;20919;-73
2022/01/03 07:35:46;;;;;;;8.70;5.97;;;;;;;8.21;88.57;99586.43;1832981;77;21249;-74
2022/01/03 07:38:12;;;;;;;294.55;48.52;;;;;;;8.23;88.54;99593.69;1835018;77;20994;-74
2022/01/03 07:40:40;;;;;;;193.47;104.43;;;;;;;8.23;88.45;99596.70;1825949;77;24704;-74
2022/01/03 07:43:07;;;;;;;239.93;135.52;;;;;;;8.21;88.50;99595.88;1836517;77;21025;-74
2022/01/03 07:45:33;;;;;;;204.38;44.85;;;;;;;8.23;88.57;99591.55;1768771;78;21084;-74
2022/01/03 07:48:00;;;;;;;64.70;33.55;;;;;;;8.24;88.54;99604.39;1801163;77;21038;-74
2022/01/03 07:50:26;;;;;;;3.70;3.12;;;;;;;8.24;88.52;99603.10;1786791;78;20961;-73
2022/01/03 07:52:52;;;;;;;5.95;2.83;;;;;;;8.25;88.59;99612.52;1802659;77;21316;-73
2022/01/03 07:55:19;;;;;;;309.32;40.95;;;;;;;8.24;88.54;99612.11;1765515;78;25270;-73
2022/01/03 07:57:46;;;;;;;3.40;1.70;;;;;;;8.22;88.53;99612.59;1763481;78;21029;-73
2022/01/03 08:00:16;;;;;;;1999.90;999.90;;;;;;;8.20;88.54;99619.50;1789438;78;21100;-72
2022/01/03 08:02:43;;;;;;;40.28;36.25;;;;;;;8.20;88.61;99616.92;1812094;77;20888;-73
2022/01/03 08:05:13;;;;;;;1.45;0.80;;;;;;;8.20;88.59;99618.66;1755370;80;20977;-73
2022/01/03 08:07:40;;;;;;;1.42;0.75;;;;;;;8.17;88.48;99616.14;1788500;77;20900;-73
2022/01/03 08:10:08;;;;;;;1.07;0.70;;;;;;;8.14;88.54;99613.64;1798261;78;20894;-73
2022/01/03 08:12:37;;;;;;;1.05;0.60;;;;;;;8.11;88.47;99619.70;1796852;78;20945;-74
2022/01/03 08:15:05;;;;;;;0.75;0.60;;;;;;;8.10;88.56;99629.59;1820500;78;20884;-74
2022/01/03 08:17:31;;;;;;;0.80;0.78;;;;;;;8.08;88.47;99627.49;1809751;78;20944;-74
2022/01/03 08:19:57;;;;;;;0.88;0.50;;;;;;;8.06;88.54;99633.11;1806798;77;23777;-73
2022/01/03 08:22:23;;;;;;;0.85;0.80;;;;;;;8.06;88.57;99639.98;1807367;78;21366;-73
2022/01/03 08:24:49;;;;;;;4.03;0.60;;;;;;;8.06;88.61;99643.85;1808429;78;20905;-72
2022/01/03 08:27:16;;;;;;;3.00;0.90;;;;;;;8.04;88.54;99654.19;1813125;78;20983;-73
2022/01/03 08:29:42;;;;;;;58.05;3.33;;;;;;;8.04;88.58;99661.06;1816078;78;20953;-73
2022/01/03 08:32:09;;;;;;;1.47;0.55;;;;;;;8.03;88.62;99660.66;1797567;78;21445;-73
2022/01/03 08:34:35;;;;;;;1.20;0.57;;;;;;;8.00;88.61;99668.44;1818636;77;20942;-73
2022/01/03 08:37:01;;;;;;;0.30;0.30;;;;;;;7.97;88.55;99677.92;1841114;77;20910;-73
2022/01/03 08:39:28;;;;;;;0.50;0.40;;;;;;;7.95;88.54;99686.55;1771177;79;21115;-73
2022/01/03 08:41:55;;;;;;;0.40;0.40;;;;;;;7.91;88.54;99690.06;1814593;77;26516;-73
2022/01/03 08:44:21;;;;;;;;;;;;;;;7.91;88.67;99700.36;1835749;77;21019;-72
2022/01/03 08:46:48;;;;;;;1.17;0.60;;;;;;;7.90;88.68;99704.66;1798787;77;20175;-73
2022/01/03 08:49:14;;;;;;;1.30;0.90;;;;;;;7.89;88.67;99708.11;1804277;77;21041;-72
2022/01/03 08:51:41;;;;;;;1.00;0.93;;;;;;;7.87;88.64;99717.59;1805351;78;21045;-74
2022/01/03 08:54:08;;;;;;;0.85;0.78;;;;;;;7.88;88.72;99724.88;1796495;78;21049;-73
2022/01/03 08:56:34;;;;;;;2.80;2.60;;;;;;;7.86;88.64;99731.33;1780323;78;21358;-73
2022/01/03 08:59:02;;;;;;;44.80;42.30;;;;;;;7.85;88.69;99740.38;1771412;78;22213;-73
2022/01/03 09:01:28;;;;;;;17.12;16.35;;;;;;;7.82;88.62;99745.14;1790780;78;21053;-73
2022/01/03 09:03:54;;;;;;;1.43;1.17;;;;;;;7.79;88.63;99752.95;1796392;78;21111;-74
2022/01/03 09:06:21;;;;;;;1.70;0.98;;;;;;;7.79;88.60;99761.95;1805345;77;20965;-73
2022/01/03 09:08:48;;;;;;;3.77;0.80;;;;;;;7.78;88.66;99767.98;1802791;77;21053;-73
2022/01/03 09:11:15;;;;;;;0.70;0.70;;;;;;;7.78;88.69;99767.13;1798100;77;21071;-73
2022/01/03 09:13:42;;;;;;;0.85;0.68;;;;;;;7.78;88.72;99775.70;1800052;77;21328;-76
2022/01/03 09:16:08;;;;;;;2.80;1.00;;;;;;;7.78;88.69;99782.13;1799653;77;20895;-73
2022/01/03 09:18:38;;;;;;;1.17;0.70;;;;;;;7.77;88.65;99785.58;1802419;77;21370;-73
2022/01/03 09:21:05;;;;;;;2.52;0.68;;;;;;;7.76;88.66;99787.74;1808768;77;20932;-73
2022/01/03 09:23:36;;;;;;;0.60;0.60;;;;;;;7.76;88.65;99801.05;1803446;77;20894;-73
2022/01/03 09:28:56;;;;;;;2.85;0.50;;;;;;;7.69;88.59;99819.59;1802611;77;20931;-74
2022/01/03 09:31:28;;;;;;;0.72;0.50;;;;;;;7.68;88.66;99820.47;1804117;77;20853;-73
2022/01/03 09:33:57;;;;;;;2.58;0.75;;;;;;;7.67;88.69;99829.50;1802897;77;20900;-73
2022/01/03 09:36:25;;;;;;;0.62;0.40;;;;;;;7.64;88.67;99828.69;1812497;77;20928;-74
2022/01/03 09:38:52;;;;;;;0.33;0.33;;;;;;;7.66;88.71;99838.10;1757394;79;20944;-74
2022/01/03 09:41:20;;;;;;;;;;;;;;;7.64;88.69;99826.55;1813607;77;20912;-74
2022/01/03 09:43:58;;;;;;;0.50;0.35;;;;;;;7.63;88.74;99839.84;1783154;77;20093;-74
2022/01/03 09:46:36;;;;;;;1.65;0.40;;;;;;;7.63;88.65;99845.43;1802017;77;21090;-75
2022/01/03 09:49:06;;;;;;;0.40;0.40;;;;;;;7.59;88.64;99846.35;1803052;77;20872;-74
2022/01/03 09:51:33;;;;;;;0.50;0.47;;;;;;;7.59;88.70;99850.22;1807401;77;20870;-73
2022/01/03 09:54:07;;;;;;;0.55;0.42;;;;;;;7.59;88.72;99863.92;1803732;77;20939;-79
2022/01/03 09:56:37;;;;;;;0.55;0.50;;;;;;;7.58;88.69;99861.38;1798488;77;20967;-75
2022/01/03 09:59:05;;;;;;;0.90;0.42;;;;;;;7.56;88.72;99863.97;1809460;77;20940;-75
2022/01/03 10:01:33;;;;;;;0.57;0.50;;;;;;;7.55;88.71;99860.14;1807059;77;20872;-73
2022/01/03 10:04:00;;;;;;;0.47;0.23;;;;;;;7.54;88.71;99867.01;1805623;77;20896;-74
2022/01/03 10:06:26;;;;;;;0.80;0.40;;;;;;;7.53;88.71;99874.75;1813880;77;20914;-74
2022/01/03 10:08:54;;;;;;;0.95;0.50;;;;;;;7.53;88.74;99875.59;1806029;77;20945;-75
2022/01/03 10:11:22;;;;;;;0.40;0.40;;;;;;;7.41;88.71;99866.78;1812145;77;20920;-75
2022/01/03 10:13:49;;;;;;;0.80;0.50;;;;;;;7.52;88.73;99882.91;1826950;77;20935;-75
2022/01/03 10:16:16;;;;;;;0.40;0.40;;;;;;;7.52;88.76;99878.20;1814476;77;21487;-75
2022/01/03 10:18:42;;;;;;;0.70;0.30;;;;;;;7.44;88.75;99868.45;1826803;77;20877;-76
2022/01/03 10:21:08;;;;;;;603.62;113.32;;;;;;;7.53;88.76;99883.31;1789873;77;20861;-74
2022/01/03 10:23:35;;;;;;;125.05;12.13;;;;;;;7.56;88.83;99878.56;1800410;77;20920;-75
2022/01/03 10:26:24;;;;;;;0.50;0.25;;;;;;;7.57;88.80;99892.69;1795584;77;21311;-74
2022/01/03 10:28:48;;;;;;;0.78;0.40;;;;;;;7.58;88.77;99890.97;1799194;77;20901;-73
2022/01/03 10:31:20;;;;;;;1.02;0.60;;;;;;;7.60;88.87;99886.20;1812373;77;20916;-74
2022/01/03 10:33:50;;;;;;;0.70;0.40;;;;;;;7.63;88.87;99885.31;1795506;77;20920;-73
2022/01/03 10:36:33;;;;;;;2.02;0.42;;;;;;;7.64;88.82;99894.73;1801513;77;20932;-73
2022/01/03 10:39:25;;;;;;;2.85;2.62;;;;;;;7.65;88.85;99895.14;1789670;77;20899;-73
2022/01/03 10:41:55;;;;;;;0.60;0.40;;;;;;;7.66;88.85;99895.55;1789317;77;20940;-73
2022/01/03 10:44:40;;;;;;;1.02;0.40;;;;;;;7.66;88.83;99892.98;1795832;77;20884;-74
2022/01/03 10:47:14;;;;;;;0.57;0.30;;;;;;;7.66;88.84;99895.99;1797732;77;20885;-74
2022/01/03 10:49:43;;;;;;;0.50;0.50;;;;;;;7.68;88.92;99898.11;1809296;77;20932;-73
2022/01/03 10:52:20;;;;;;;0.95;0.30;;;;;;;7.69;88.90;99893.38;1804429;77;21005;-75
2022/01/03 10:55:09;;;;;;;;;;;;;;;7.69;88.91;99894.66;1790991;77;20957;-76
2022/01/03 10:57:52;;;;;;;0.70;0.50;;;;;;;7.66;88.85;99907.13;1783141;77;20498;-75
2022/01/03 11:00:28;;;;;;;0.60;0.50;;;;;;;7.65;88.88;99901.58;1792263;77;20877;-73
2022/01/03 11:03:39;;;;;;;0.82;0.80;;;;;;;7.64;88.92;99911.02;1796084;77;20853;-73
2022/01/03 11:11:39;;;;;;;104.12;35.92;;;;;;;7.72;88.92;99928.06;1821743;77;20935;-75
2022/01/03 11:14:07;;;;;;;1.47;0.70;;;;;;;7.73;88.96;99916.90;1822564;77;20917;-75
2022/01/03 11:16:39;;;;;;;2.35;0.90;;;;;;;7.75;89.02;99916.00;1784454;79;20909;-74
2022/01/03 11:19:06;;;;;;;3.55;0.70;;;;;;;7.79;89.05;99920.23;1809528;77;20939;-73
2022/01/03 11:21:33;;;;;;;;;;;;;;;7.82;88.99;99920.58;1795045;77;21049;-72
2022/01/03 11:24:11;;;;;;;11.08;3.65;;;;;;;7.85;89.05;99921.38;1784497;79;20151;-72
2022/01/03 11:26:46;;;;;;;1.07;0.70;;;;;;;7.86;88.94;99914.52;1791571;79;20913;-73
2022/01/03 11:29:08;;;;;;;3.17;0.90;;;;;;;7.85;88.94;99916.23;1788814;79;20842;-74
2022/01/03 11:31:39;;;;;;;63.83;11.23;;;;;;;7.85;88.97;99911.53;1793694;79;20873;-74
2022/01/03 11:34:05;;;;;;;3.37;1.30;;;;;;;7.88;89.00;99907.62;1792763;79;20881;-74
2022/01/03 11:36:31;;;;;;;387.02;307.05;;;;;;;7.89;88.98;99902.45;1788933;79;20885;-77
2022/01/03 11:39:04;;;;;;;4.47;1.27;;;;;;;7.90;88.98;99900.72;1787828;79;20841;-77
2022/01/03 11:41:31;;;;;;;149.30;36.33;;;;;;;7.93;88.99;99905.81;1790124;79;20904;-77
2022/01/03 11:43:58;;;;;;;182.37;34.63;;;;;;;7.92;89.00;99902.39;1776892;79;21354;-76
2022/01/03 11:46:24;;;;;;;4.55;1.40;;;;;;;7.92;88.98;99911.41;1729396;81;25906;-76
2022/01/03 11:48:52;;;;;;;4.25;1.15;;;;;;;7.94;89.00;99897.22;1745249;81;20961;-76
2022/01/03 11:51:18;;;;;;;5.03;1.57;;;;;;;7.95;89.02;99902.34;1750991;81;20913;-76
2022/01/03 11:53:48;;;;;;;2.98;1.22;;;;;;;7.97;89.03;99897.17;1751489;81;21023;-75
2022/01/03 11:56:19;;;;;;;4.20;1.70;;;;;;;8.00;89.07;99895.83;1757692;81;21461;-76
2022/01/03 11:59:05;;;;;;;3.62;1.65;;;;;;;8.05;89.11;99899.61;1747733;80;20972;-76
2022/01/03 12:04:26;;;;;;;3.55;1.67;;;;;;;8.10;89.07;99903.81;1748756;81;21123;-73
2022/01/03 12:07:06;;;;;;;3.20;1.77;;;;;;;8.12;89.04;99906.36;1753904;81;20865;-73
2022/01/03 12:09:35;;;;;;;3.27;1.37;;;;;;;8.12;89.06;99904.63;1745824;79;21570;-73